createdAt,value
2022-11-17T00:00:43.849Z,16.73
2022-11-17T00:03:15.920Z,19.30
2022-11-17T00:05:44.923Z,21.95
2022-11-17T00:08:12.940Z,22.40
2022-11-17T00:10:40.690Z,21.15
2022-11-17T00:13:29.453Z,23.40
2022-11-17T00:15:57.314Z,20.15
2022-11-17T00:18:43.821Z,20.67
2022-11-17T00:21:23.825Z,26.77
2022-11-17T00:23:51.799Z,27.98
2022-11-17T00:26:21.408Z,26.20
2022-11-17T00:28:57.235Z,23.95
2022-11-17T00:31:44.678Z,21.60
2022-11-17T00:34:17.931Z,24.60
2022-11-17T00:36:50.219Z,23.33
2022-11-17T00:39:19.868Z,26.52
2022-11-17T00:41:47.740Z,23.40
2022-11-17T00:44:16.396Z,24.70
2022-11-17T00:46:44.266Z,24.33
2022-11-17T00:49:12.448Z,22.77
2022-11-17T00:51:41.016Z,22.40
2022-11-17T00:54:11.800Z,22.65
2022-11-17T00:56:39.991Z,21.00
2022-11-17T00:59:07.842Z,16.60
2022-11-17T01:01:36.156Z,20.70
2022-11-17T01:04:04.609Z,19.95
2022-11-17T01:06:36.284Z,17.42
2022-11-17T01:09:06.546Z,16.77
2022-11-17T01:11:34.354Z,19.83
2022-11-17T01:14:02.348Z,18.00
2022-11-17T01:16:31.716Z,20.23
2022-11-17T01:19:03.215Z,16.52
2022-11-17T01:21:31.956Z,15.95
2022-11-17T01:24:01.240Z,14.85
2022-11-17T01:26:32.122Z,20.15
2022-11-17T01:29:01.659Z,15.73
2022-11-17T01:31:31.824Z,15.50
2022-11-17T01:33:59.678Z,16.10
2022-11-17T01:36:52.264Z,16.33
2022-11-17T01:39:20.301Z,13.75
2022-11-17T01:41:48.293Z,18.58
2022-11-17T01:44:53.161Z,17.23
2022-11-17T01:47:38.587Z,17.13
2022-11-17T01:50:22.010Z,17.98
2022-11-17T01:52:52.412Z,18.92
2022-11-17T01:55:22.526Z,19.15
2022-11-17T01:58:06.704Z,20.00
2022-11-17T02:00:34.576Z,17.83
2022-11-17T02:03:02.911Z,18.88
2022-11-17T02:05:50.200Z,23.98
2022-11-17T02:08:20.941Z,25.58
2022-11-17T02:10:51.909Z,26.75
2022-11-17T02:13:23.062Z,31.40
2022-11-17T02:15:50.933Z,28.40
2022-11-17T02:18:19.169Z,25.00
2022-11-17T02:21:05.445Z,25.15
2022-11-17T02:24:10.275Z,23.80
2022-11-17T02:26:59.537Z,21.75
2022-11-17T02:29:53.703Z,22.27
2022-11-17T02:32:32.880Z,25.92
2022-11-17T02:35:27.985Z,28.88
2022-11-17T02:38:19.433Z,34.83
2022-11-17T02:41:13.700Z,36.58
2022-11-17T02:44:04.927Z,30.65
2022-11-17T02:46:51.269Z,33.88
2022-11-17T02:49:31.557Z,33.80
2022-11-17T02:52:00.532Z,24.52
2022-11-17T02:54:31.339Z,27.20
2022-11-17T02:56:59.619Z,24.52
2022-11-17T02:59:44.848Z,23.90
2022-11-17T03:02:18.507Z,24.20
2022-11-17T03:05:13.919Z,25.83
2022-11-17T03:07:47.497Z,23.15
2022-11-17T03:10:22.495Z,23.73
2022-11-17T03:13:27.574Z,20.73
2022-11-17T03:18:38.480Z,15.70
2022-11-17T03:21:10.782Z,15.55
2022-11-17T03:23:51.147Z,16.95
2022-11-17T03:26:29.723Z,15.13
2022-11-17T03:28:59.973Z,17.13
2022-11-17T03:31:30.061Z,17.50
2022-11-17T03:33:59.893Z,19.08
2022-11-17T03:36:35.350Z,14.25
2022-11-17T03:39:13.915Z,17.63
2022-11-17T03:41:46.140Z,16.80
2022-11-17T03:44:21.089Z,19.40
2022-11-17T03:46:52.062Z,18.25
2022-11-17T03:50:01.158Z,22.02
2022-11-17T03:52:29.859Z,21.15
2022-11-17T03:54:57.885Z,17.80
2022-11-17T03:57:35.124Z,19.85
2022-11-17T04:00:07.665Z,18.75
2022-11-17T04:02:46.036Z,21.55
2022-11-17T04:05:17.494Z,24.33
2022-11-17T04:07:47.428Z,21.73
2022-11-17T04:10:20.510Z,18.80
2022-11-17T04:13:08.113Z,19.20
2022-11-17T04:15:55.272Z,19.20
2022-11-17T04:18:23.990Z,22.65
2022-11-17T04:20:54.196Z,18.60
2022-11-17T04:23:22.813Z,18.77
2022-11-17T04:26:14.274Z,21.77
2022-11-17T04:28:48.880Z,19.08
2022-11-17T04:31:23.958Z,19.35
2022-11-17T04:33:53.055Z,21.38
2022-11-17T04:36:29.133Z,16.83
2022-11-17T04:38:58.992Z,17.25
2022-11-17T04:41:47.367Z,18.20
2022-11-17T04:44:17.595Z,20.02
2022-11-17T04:46:48.832Z,18.25
2022-11-17T04:49:18.449Z,18.98
2022-11-17T04:51:46.714Z,17.02
2022-11-17T04:54:16.794Z,20.30
2022-11-17T04:56:48.427Z,21.98
2022-11-17T04:59:16.381Z,19.58
2022-11-17T05:01:44.781Z,21.88
2022-11-17T05:04:14.971Z,18.70
2022-11-17T05:06:45.646Z,20.92
2022-11-17T05:09:15.894Z,17.42
2022-11-17T05:12:02.240Z,20.45
2022-11-17T05:14:30.533Z,22.98
2022-11-17T05:17:11.547Z,22.45
2022-11-17T05:19:47.298Z,20.77
2022-11-17T05:22:49.696Z,25.17
2022-11-17T05:25:17.503Z,21.23
2022-11-17T05:27:45.184Z,20.23
2022-11-17T05:30:13.227Z,19.98
2022-11-17T05:32:40.947Z,19.45
2022-11-17T05:35:09.072Z,23.63
2022-11-17T05:37:36.951Z,23.73
2022-11-17T05:40:05.058Z,21.27
2022-11-17T05:42:32.813Z,17.98
2022-11-17T05:45:00.519Z,20.33
2022-11-17T05:47:28.201Z,19.13
2022-11-17T05:49:55.959Z,18.25
2022-11-17T05:52:23.753Z,22.88
2022-11-17T05:54:51.530Z,18.52
2022-11-17T05:57:28.709Z,18.58
2022-11-17T06:00:02.481Z,18.80
2022-11-17T06:05:07.832Z,21.20
2022-11-17T06:07:37.350Z,19.23
2022-11-17T06:10:05.773Z,20.08
2022-11-17T06:12:33.622Z,17.27
2022-11-17T06:15:01.436Z,16.40
2022-11-17T06:17:34.736Z,19.75
2022-11-17T06:20:12.475Z,18.70
2022-11-17T06:22:45.429Z,14.40
2022-11-17T06:25:18.801Z,16.77
2022-11-17T06:27:49.563Z,16.25
2022-11-17T06:30:18.057Z,17.17
2022-11-17T06:32:46.747Z,21.10
2022-11-17T06:35:16.596Z,17.38
2022-11-17T06:37:44.418Z,16.23
2022-11-17T06:40:13.549Z,18.60
2022-11-17T06:43:00.388Z,17.08
2022-11-17T06:45:28.207Z,16.73
2022-11-17T06:47:56.828Z,20.42
2022-11-17T06:50:24.959Z,21.98
2022-11-17T06:52:57.257Z,17.90
2022-11-17T06:55:26.112Z,16.90
2022-11-17T06:58:00.278Z,15.55
2022-11-17T07:03:14.687Z,22.25
2022-11-17T07:05:42.531Z,18.92
2022-11-17T07:08:10.467Z,19.67
2022-11-17T07:10:38.500Z,21.77
2022-11-17T07:13:06.492Z,19.70
2022-11-17T07:15:34.310Z,19.70
2022-11-17T07:18:02.080Z,21.05
2022-11-17T07:20:29.863Z,19.13
2022-11-17T07:23:00.736Z,24.40
2022-11-17T07:25:28.560Z,25.17
2022-11-17T07:28:00.007Z,22.90
2022-11-17T07:30:28.429Z,22.98
2022-11-17T07:32:58.948Z,19.73
2022-11-17T07:35:27.979Z,22.38
2022-11-17T07:37:59.795Z,19.20
2022-11-17T07:40:31.665Z,20.17
2022-11-17T07:42:59.548Z,19.55
2022-11-17T07:45:31.815Z,17.63
2022-11-17T07:48:02.329Z,18.65
2022-11-17T07:50:30.660Z,17.48
2022-11-17T07:52:59.804Z,20.63
2022-11-17T07:55:27.710Z,21.52
2022-11-17T07:58:00.080Z,22.23
2022-11-17T08:00:30.853Z,25.60
2022-11-17T08:03:05.157Z,23.85
2022-11-17T08:05:43.067Z,30.23
2022-11-17T08:08:13.715Z,31.40
2022-11-17T08:10:43.114Z,24.13
2022-11-17T08:13:11.665Z,37.13
2022-11-17T08:15:39.477Z,30.67
2022-11-17T08:18:07.934Z,32.78
2022-11-17T08:20:35.815Z,26.52
2022-11-17T08:23:03.638Z,29.65
2022-11-17T08:25:31.570Z,21.20
2022-11-17T08:27:59.520Z,25.20
2022-11-17T08:30:28.718Z,24.40
2022-11-17T08:32:56.583Z,24.88
2022-11-17T08:35:26.151Z,23.50
2022-11-17T08:37:54.389Z,20.52
2022-11-17T08:40:22.277Z,18.13
2022-11-17T08:43:00.395Z,20.52
2022-11-17T08:45:29.023Z,19.95
2022-11-17T08:47:56.894Z,20.40
2022-11-17T08:50:24.749Z,22.23
2022-11-17T08:52:53.510Z,19.75
2022-11-17T08:55:21.576Z,19.63
2022-11-17T08:57:49.512Z,18.38
2022-11-17T09:00:20.043Z,19.40
2022-11-17T09:02:48.115Z,21.20
2022-11-17T09:05:15.866Z,16.98
2022-11-17T09:07:43.715Z,15.77
2022-11-17T09:10:11.958Z,16.75
2022-11-17T09:12:39.925Z,15.95
2022-11-17T09:15:08.270Z,16.63
2022-11-17T09:17:36.112Z,16.65
2022-11-17T09:20:04.131Z,17.83
2022-11-17T09:22:31.916Z,19.85
2022-11-17T09:24:59.651Z,18.85
2022-11-17T09:27:27.491Z,18.75
2022-11-17T09:29:55.284Z,20.70
2022-11-17T09:32:23.244Z,22.67
2022-11-17T09:34:51.067Z,20.88
2022-11-17T09:37:18.979Z,26.42
2022-11-17T09:39:46.883Z,22.95
2022-11-17T09:42:22.810Z,25.35
2022-11-17T09:45:09.259Z,27.40
2022-11-17T09:48:18.553Z,23.27
2022-11-17T09:50:50.813Z,26.40
2022-11-17T09:53:49.976Z,26.20
2022-11-17T09:56:18.201Z,24.98
2022-11-17T09:58:51.318Z,25.17
2022-11-17T10:01:21.646Z,27.08
2022-11-17T10:03:53.681Z,30.67
2022-11-17T10:06:25.319Z,31.10
2022-11-17T10:09:26.215Z,24.80
2022-11-17T10:12:00.398Z,26.63
2022-11-17T10:14:29.513Z,29.27
2022-11-17T10:16:59.470Z,25.73
2022-11-17T10:19:30.560Z,20.35
2022-11-17T10:22:18.761Z,24.35
2022-11-17T10:24:52.256Z,26.33
2022-11-17T10:27:24.816Z,23.80
2022-11-17T10:30:01.554Z,19.80
2022-11-17T10:32:32.803Z,18.25
2022-11-17T10:35:20.383Z,20.95
2022-11-17T10:38:00.296Z,25.55
2022-11-17T10:40:49.805Z,22.00
2022-11-17T10:43:23.627Z,21.48
2022-11-17T10:45:55.132Z,23.85
2022-11-17T10:48:38.106Z,20.80
2022-11-17T10:51:22.407Z,19.90
2022-11-17T10:54:05.417Z,25.25
2022-11-17T10:56:40.339Z,21.10
2022-11-17T10:59:24.271Z,24.88
2022-11-17T11:01:52.356Z,22.90
2022-11-17T11:04:31.546Z,19.70
2022-11-17T11:07:14.520Z,24.95
2022-11-17T11:10:06.739Z,25.85
2022-11-17T11:12:50.714Z,22.85
2022-11-17T11:15:21.978Z,20.52
2022-11-17T11:17:50.092Z,23.52
2022-11-17T11:20:21.102Z,21.55
2022-11-17T11:23:17.895Z,21.33
2022-11-17T11:25:59.055Z,22.73
2022-11-17T11:28:40.092Z,22.55
2022-11-17T11:31:49.139Z,21.77
2022-11-17T11:34:58.253Z,22.15
2022-11-17T11:37:37.849Z,22.73
2022-11-17T11:40:31.919Z,22.45
2022-11-17T11:43:22.833Z,23.35
2022-11-17T11:45:50.688Z,21.15
2022-11-17T11:48:28.308Z,19.35
2022-11-17T11:51:02.287Z,20.48
2022-11-17T11:54:09.617Z,25.95
2022-11-17T11:56:44.311Z,20.23
2022-11-17T11:59:23.808Z,22.25
2022-11-17T12:02:13.219Z,24.00
2022-11-17T12:04:49.842Z,19.45
2022-11-17T12:07:37.900Z,20.45
2022-11-17T12:10:27.542Z,18.58
2022-11-17T12:12:55.746Z,18.15
2022-11-17T12:15:23.441Z,19.55
2022-11-17T12:18:01.391Z,17.88
2022-11-17T12:20:51.355Z,16.90
2022-11-17T12:23:37.715Z,18.73
2022-11-17T12:26:05.779Z,24.58
2022-11-17T12:28:37.496Z,23.83
2022-11-17T12:31:24.473Z,25.45
2022-11-17T12:33:52.177Z,21.05
2022-11-17T12:36:31.634Z,19.60
2022-11-17T12:39:07.117Z,22.98
2022-11-17T12:41:49.947Z,19.45
2022-11-17T12:44:32.684Z,25.65
2022-11-17T12:47:11.416Z,24.60
2022-11-17T12:50:06.995Z,22.10
2022-11-17T12:52:43.731Z,21.63
2022-11-17T12:55:52.686Z,20.30
2022-11-17T12:58:49.444Z,21.80
2022-11-17T13:01:42.150Z,24.58
2022-11-17T13:04:18.906Z,20.63
2022-11-17T13:07:07.417Z,21.63
2022-11-17T13:09:36.802Z,20.80
2022-11-17T13:12:06.664Z,21.75
2022-11-17T13:14:36.486Z,21.13
2022-11-17T13:17:04.267Z,21.55
2022-11-17T13:19:42.205Z,22.38
2022-11-17T13:22:13.941Z,25.83
2022-11-17T13:24:44.763Z,18.92
2022-11-17T13:27:27.855Z,21.02
2022-11-17T13:30:21.655Z,24.60
2022-11-17T13:32:50.236Z,23.23
2022-11-17T13:35:32.632Z,20.85
2022-11-17T13:38:19.831Z,20.30
2022-11-17T13:40:50.396Z,23.27
2022-11-17T13:43:20.799Z,25.42
2022-11-17T13:45:53.616Z,26.30
2022-11-17T13:48:48.641Z,26.45
2022-11-17T13:51:39.225Z,24.15
2022-11-17T13:54:13.310Z,26.95
2022-11-17T13:59:26.409Z,26.92
2022-11-17T14:02:19.742Z,30.17
2022-11-17T14:05:16.962Z,31.27
2022-11-17T14:07:46.135Z,27.92
2022-11-17T14:10:19.905Z,27.55
2022-11-17T14:12:49.697Z,31.17
2022-11-17T14:15:29.453Z,25.23
2022-11-17T14:17:59.967Z,23.58
2022-11-17T14:20:34.162Z,23.45
2022-11-17T14:25:45.887Z,25.33
2022-11-17T14:28:18.228Z,23.42
2022-11-17T14:30:53.368Z,23.10
2022-11-17T14:33:21.944Z,25.70
2022-11-17T14:35:58.804Z,28.88
2022-11-17T14:38:26.647Z,33.60
2022-11-17T14:40:54.448Z,27.58
2022-11-17T14:43:22.947Z,26.70
2022-11-17T14:45:51.022Z,26.05
2022-11-17T14:48:20.367Z,26.55
2022-11-17T14:50:48.661Z,26.17
2022-11-17T14:53:16.481Z,23.67
2022-11-17T14:55:44.463Z,29.98
2022-11-17T14:58:12.276Z,29.60
2022-11-17T15:00:40.035Z,28.60
2022-11-17T15:03:07.942Z,31.05
2022-11-17T15:05:36.551Z,34.90
2022-11-17T15:08:05.201Z,31.00
2022-11-17T15:10:33.120Z,30.23
2022-11-17T15:13:00.978Z,27.35
2022-11-17T15:15:28.829Z,29.02
2022-11-17T15:17:56.632Z,23.42
2022-11-17T15:20:24.466Z,29.85
2022-11-17T15:22:52.247Z,30.73
2022-11-17T15:25:20.037Z,25.70
2022-11-17T15:27:47.839Z,28.83
2022-11-17T15:30:15.703Z,27.95
2022-11-17T15:32:43.598Z,30.23
2022-11-17T15:35:11.446Z,24.42
2022-11-17T15:37:39.346Z,25.63
2022-11-17T15:40:07.644Z,25.35
2022-11-17T15:42:35.518Z,30.33
2022-11-17T15:45:03.367Z,23.55
2022-11-17T15:47:31.213Z,24.42
2022-11-17T15:49:59.014Z,27.90
2022-11-17T15:52:48.587Z,28.58
2022-11-17T15:55:14.666Z,29.25
2022-11-17T15:57:42.371Z,24.02
2022-11-17T16:00:10.515Z,25.63
2022-11-17T16:02:40.653Z,27.83
2022-11-17T16:05:08.922Z,24.63
2022-11-17T16:07:36.843Z,29.65
2022-11-17T16:10:04.969Z,29.95
2022-11-17T16:12:32.730Z,24.77
2022-11-17T16:15:00.575Z,26.80
2022-11-17T16:17:28.342Z,30.50
2022-11-17T16:19:56.227Z,36.90
2022-11-17T16:22:24.075Z,32.50
2022-11-17T16:24:51.862Z,33.95
2022-11-17T16:27:19.711Z,31.40
2022-11-17T16:29:47.489Z,38.80
2022-11-17T16:32:15.309Z,39.63
2022-11-17T16:34:43.731Z,42.20
2022-11-17T16:37:11.548Z,41.97
2022-11-17T16:39:39.804Z,40.53
2022-11-17T16:42:07.786Z,35.90
2022-11-17T16:44:38.898Z,59.03
2022-11-17T16:47:06.771Z,40.45
2022-11-17T16:49:36.435Z,41.90
2022-11-17T16:52:05.282Z,35.08
2022-11-17T16:54:33.922Z,38.38
2022-11-17T16:57:02.087Z,36.00
2022-11-17T16:59:31.590Z,43.00
2022-11-17T17:02:00.120Z,37.92
2022-11-17T17:04:33.143Z,38.83
2022-11-17T17:07:01.033Z,35.70
2022-11-17T17:09:31.412Z,36.60
2022-11-17T17:12:00.087Z,42.85
2022-11-17T17:14:27.853Z,34.55
2022-11-17T17:16:56.846Z,43.67
2022-11-17T17:19:25.147Z,39.05
2022-11-17T17:21:53.634Z,37.55
2022-11-17T17:24:21.657Z,38.38
2022-11-17T17:26:50.414Z,35.53
2022-11-17T17:29:22.357Z,36.08
2022-11-17T17:31:55.075Z,36.17
2022-11-17T17:34:23.497Z,39.92
2022-11-17T17:36:52.054Z,38.15
2022-11-17T17:39:22.072Z,37.63
2022-11-17T17:41:50.075Z,35.22
2022-11-17T17:44:21.601Z,37.92
2022-11-17T17:46:50.706Z,41.53
2022-11-17T17:49:19.692Z,35.15
2022-11-17T17:51:48.110Z,31.35
2022-11-17T17:54:26.110Z,37.80
2022-11-17T17:56:58.282Z,36.15
2022-11-17T17:59:26.755Z,35.60
2022-11-17T18:01:55.642Z,34.53
2022-11-17T18:04:24.275Z,33.50
2022-11-17T18:06:52.254Z,36.85
2022-11-17T18:09:21.022Z,37.90
2022-11-17T18:11:50.297Z,32.67
2022-11-17T18:14:20.660Z,31.60
2022-11-17T18:16:48.478Z,37.75
2022-11-17T18:19:17.767Z,34.25
2022-11-17T18:21:46.361Z,34.47
2022-11-17T18:24:14.424Z,34.15
2022-11-17T18:26:42.364Z,35.63
2022-11-17T18:29:18.821Z,35.38
2022-11-17T18:31:48.012Z,38.17
2022-11-17T18:34:17.064Z,37.38
2022-11-17T18:36:45.708Z,36.72
2022-11-17T18:39:15.420Z,33.17
2022-11-17T18:41:43.933Z,35.17
2022-11-17T18:44:16.914Z,47.47
2022-11-17T18:46:47.457Z,50.90
2022-11-17T18:49:15.617Z,48.95
2022-11-17T18:51:43.808Z,36.42
2022-11-17T18:54:12.522Z,40.72
2022-11-17T18:56:40.581Z,38.05
2022-11-17T18:59:11.966Z,44.47
2022-11-17T19:01:41.510Z,40.28
2022-11-17T19:04:12.866Z,40.47
2022-11-17T19:06:41.563Z,40.75
2022-11-17T19:09:10.975Z,40.13
2022-11-17T19:11:39.043Z,37.78
2022-11-17T19:14:07.515Z,40.33
2022-11-17T19:16:44.755Z,35.75
2022-11-17T19:19:19.454Z,38.47
2022-11-17T19:21:47.942Z,43.83
2022-11-17T19:24:17.070Z,41.35
2022-11-17T19:26:46.374Z,35.88
2022-11-17T19:29:18.310Z,36.47
2022-11-17T19:31:47.534Z,35.40
2022-11-17T19:34:18.826Z,59.10
2022-11-17T19:36:47.480Z,48.67
2022-11-17T19:39:17.212Z,38.80
2022-11-17T19:41:48.040Z,39.05
2022-11-17T19:44:16.566Z,43.05
2022-11-17T19:46:44.494Z,44.78
2022-11-17T19:49:12.635Z,41.55
2022-11-17T19:51:42.051Z,36.55
2022-11-17T19:54:12.163Z,46.22
2022-11-17T19:56:40.198Z,34.88
2022-11-17T19:59:14.004Z,45.28
2022-11-17T20:01:44.234Z,38.03
2022-11-17T20:04:12.133Z,39.63
2022-11-17T20:06:41.139Z,42.47
2022-11-17T20:09:11.525Z,40.17
2022-11-17T20:11:39.851Z,38.72
2022-11-17T20:14:08.022Z,39.67
2022-11-17T20:16:36.939Z,38.03
2022-11-17T20:19:05.057Z,43.28
2022-11-17T20:21:33.776Z,47.33
2022-11-17T20:24:02.247Z,40.53
2022-11-17T20:26:33.629Z,35.83
2022-11-17T20:29:01.938Z,37.38
2022-11-17T20:31:32.550Z,41.47
2022-11-17T20:34:02.691Z,40.20
2022-11-17T20:36:33.581Z,41.88
2022-11-17T20:39:07.256Z,39.95
2022-11-17T20:41:38.846Z,36.05
2022-11-17T20:44:24.341Z,42.97
2022-11-17T20:46:59.212Z,35.13
2022-11-17T20:49:29.371Z,42.20
2022-11-17T20:52:00.982Z,36.60
2022-11-17T20:54:28.845Z,40.00
2022-11-17T20:56:57.332Z,41.65
2022-11-17T20:59:30.132Z,40.78
2022-11-17T21:01:58.919Z,39.50
2022-11-17T21:04:27.500Z,40.75
2022-11-17T21:06:56.285Z,36.85
2022-11-17T21:09:25.269Z,40.40
2022-11-17T21:11:59.404Z,38.97
2022-11-17T21:14:28.510Z,44.78
2022-11-17T21:17:00.775Z,41.80
2022-11-17T21:19:29.187Z,37.17
2022-11-17T21:21:57.222Z,37.35
2022-11-17T21:24:26.199Z,35.53
2022-11-17T21:26:54.684Z,39.80
2022-11-17T21:29:22.755Z,35.55
2022-11-17T21:31:50.693Z,43.60
2022-11-17T21:34:18.427Z,34.55
2022-11-17T21:36:46.739Z,39.40
2022-11-17T21:39:18.661Z,35.22
2022-11-17T21:41:46.780Z,39.75
2022-11-17T21:44:14.622Z,34.60
2022-11-17T21:46:42.605Z,34.22
2022-11-17T21:49:10.415Z,36.50
2022-11-17T21:51:38.766Z,36.65
2022-11-17T21:54:09.897Z,40.85
2022-11-17T21:56:38.108Z,36.65
2022-11-17T21:59:10.490Z,39.45
2022-11-17T22:01:38.882Z,39.65
2022-11-17T22:04:07.066Z,41.92
2022-11-17T22:06:34.883Z,40.78
2022-11-17T22:09:02.699Z,44.33
2022-11-17T22:11:38.341Z,39.05
2022-11-17T22:14:13.662Z,41.63
2022-11-17T22:16:44.117Z,42.13
2022-11-17T22:19:13.834Z,39.88
2022-11-17T22:21:43.173Z,39.55
2022-11-17T22:24:12.602Z,43.38
2022-11-17T22:26:42.686Z,40.50
2022-11-17T22:29:20.152Z,41.25
2022-11-17T22:31:49.395Z,41.25
2022-11-17T22:34:18.747Z,34.85
2022-11-17T22:36:46.986Z,39.15
2022-11-17T22:39:16.613Z,41.90
2022-11-17T22:41:44.676Z,41.00
2022-11-17T22:44:16.062Z,39.00
2022-11-17T22:46:43.837Z,42.22
2022-11-17T22:49:12.235Z,39.28
2022-11-17T22:51:58.810Z,41.50
2022-11-17T22:54:27.885Z,46.97
2022-11-17T22:56:56.696Z,39.63
2022-11-17T22:59:26.060Z,37.72
2022-11-17T23:01:54.117Z,40.78
2022-11-17T23:04:26.021Z,45.42
2022-11-17T23:06:53.922Z,40.88
2022-11-17T23:09:21.998Z,39.15
2022-11-17T23:11:50.019Z,39.65
2022-11-17T23:14:17.840Z,42.15
2022-11-17T23:16:45.575Z,35.92
2022-11-17T23:19:14.058Z,36.33
2022-11-17T23:21:42.178Z,37.80
2022-11-17T23:24:12.971Z,43.58
2022-11-17T23:26:42.270Z,42.67
2022-11-17T23:29:10.177Z,37.58
2022-11-17T23:31:37.977Z,35.67
2022-11-17T23:34:09.087Z,34.60
2022-11-17T23:36:36.882Z,32.67
2022-11-17T23:39:04.849Z,39.05
2022-11-17T23:41:32.837Z,34.35
2022-11-17T23:44:00.626Z,30.02
2022-11-17T23:46:28.482Z,37.75
2022-11-17T23:48:59.187Z,32.15
2022-11-17T23:51:29.906Z,29.65
2022-11-17T23:53:59.613Z,32.42
2022-11-17T23:56:27.750Z,31.88
2022-11-17T23:58:57.125Z,28.77
